Time,TemperatureF,DewpointF,PressureIn,WindDirection,WindDirectionDegrees,WindSpeedMPH,WindSpeedGustMPH,Humidity,HourlyPrecipIn,Conditions,Clouds,dailyrainin,SoftwareType,DateUTC
2013-01-03 00:03:00,19.2,15.5,28.61,NNW,338,0.0,0.0,85,0.00,,---,0.00,VWS V14.01,2013-01-03 08:03:00,
2013-01-03 00:08:00,19.2,15.2,28.61,NNW,338,0.0,0.0,84,0.00,,---,0.00,VWS V14.01,2013-01-03 08:08:00,
2013-01-03 00:13:00,19.2,15.2,28.61,ENE,68,0.0,0.0,84,0.00,,---,0.00,VWS V14.01,2013-01-03 08:13:00,
2013-01-03 00:18:00,19.2,14.6,28.61,NNE,22,0.0,0.0,82,0.00,,---,0.00,VWS V14.01,2013-01-03 08:18:00,
2013-01-03 00:23:00,19.2,14.4,28.61,ENE,68,0.0,0.0,81,0.00,,---,0.00,VWS V14.01,2013-01-03 08:23:00,
2013-01-03 00:28:00,19.2,14.1,28.61,NE,45,0.0,0.0,80,0.00,,---,0.00,VWS V14.01,2013-01-03 08:28:00,
2013-01-03 00:33:00,19.2,14.1,28.61,NE,45,0.0,0.0,80,0.00,,---,0.00,VWS V14.01,2013-01-03 08:33:00,
2013-01-03 00:38:00,19.0,13.9,28.61,NE,45,0.0,0.0,80,0.00,,---,0.00,VWS V14.01,2013-01-03 08:38:00,
2013-01-03 00:43:00,19.0,14.2,28.61,NE,45,0.0,0.0,81,0.00,,---,0.00,VWS V14.01,2013-01-03 08:43:00,
2013-01-03 00:48:00,19.0,13.9,28.61,NE,45,0.0,0.0,80,0.00,,---,0.00,VWS V14.01,2013-01-03 08:48:00,
2013-01-03 00:53:00,19.0,13.9,28.61,NE,45,0.0,0.0,80,0.00,,---,0.00,VWS V14.01,2013-01-03 08:53:00,
2013-01-03 00:58:00,18.9,13.7,28.61,NE,45,0.0,0.0,80,0.00,,---,0.00,VWS V14.01,2013-01-03 08:58:00,
2013-01-03 01:03:00,18.9,14.0,28.61,NE,45,0.0,0.0,81,0.00,,---,0.00,VWS V14.01,2013-01-03 09:03:00,
2013-01-03 01:08:00,18.7,13.8,28.61,NE,45,0.0,0.0,81,0.00,,---,0.00,VWS V14.01,2013-01-03 09:08:00,
2013-01-03 01:13:00,18.7,13.8,28.61,NE,45,0.0,0.0,81,0.00,,---,0.00,VWS V14.01,2013-01-03 09:13:00,
2013-01-03 01:18:00,18.7,13.8,28.61,NE,45,0.0,0.0,81,0.00,,---,0.00,VWS V14.01,2013-01-03 09:18:00,
2013-01-03 01:23:00,18.7,13.8,28.61,NE,45,0.0,0.0,81,0.00,,---,0.00,VWS V14.01,2013-01-03 09:23:00,
2013-01-03 01:28:00,18.5,13.6,28.61,NE,45,0.0,0.0,81,0.00,,---,0.00,VWS V14.01,2013-01-03 09:28:00,
2013-01-03 01:33:00,18.5,13.6,28.61,NE,45,0.0,0.0,81,0.00,,---,0.00,VWS V14.01,2013-01-03 09:33:00,
2013-01-03 01:38:00,18.5,13.6,28.61,NE,45,0.0,0.0,81,0.00,,---,0.00,VWS V14.01,2013-01-03 09:38:00,
2013-01-03 01:43:00,18.5,13.6,28.61,NE,45,0.0,0.0,81,0.00,,---,0.00,VWS V14.01,2013-01-03 09:43:00,
2013-01-03 01:48:00,18.5,13.6,28.61,NE,45,0.0,0.0,81,0.00,,---,0.00,VWS V14.01,2013-01-03 09:48:00,
2013-01-03 01:53:00,18.5,13.6,28.61,NE,45,0.0,0.0,81,0.00,,---,0.00,VWS V14.01,2013-01-03 09:53:00,
2013-01-03 01:58:00,18.5,13.6,28.61,East,90,0.0,0.0,81,0.00,,---,0.00,VWS V14.01,2013-01-03 09:58:00,
2013-01-03 02:03:00,18.5,13.6,28.61,East,90,0.0,0.0,81,0.00,,---,0.00,VWS V14.01,2013-01-03 10:03:00,
2013-01-03 02:08:00,18.3,13.5,28.61,East,90,0.0,0.0,81,0.00,,---,0.00,VWS V14.01,2013-01-03 10:08:00,
2013-01-03 02:13:00,18.3,13.5,28.61,East,90,0.0,0.0,81,0.00,,---,0.00,VWS V14.01,2013-01-03 10:13:00,
2013-01-03 02:18:00,18.1,13.3,28.61,East,90,0.0,0.0,81,0.00,,---,0.00,VWS V14.01,2013-01-03 10:18:00,
2013-01-03 02:23:00,18.1,13.3,28.61,East,90,0.0,0.0,81,0.00,,---,0.00,VWS V14.01,2013-01-03 10:23:00,
2013-01-03 02:28:00,18.1,13.3,28.61,East,90,0.0,0.0,81,0.00,,---,0.00,VWS V14.01,2013-01-03 10:28:00,
2013-01-03 02:33:00,18.1,13.3,28.61,SSE,158,0.0,0.0,81,0.00,,---,0.00,VWS V14.01,2013-01-03 10:33:00,
2013-01-03 02:38:00,18.1,13.3,28.61,SSE,158,0.0,0.0,81,0.00,,---,0.00,VWS V14.01,2013-01-03 10:38:00,
2013-01-03 02:43:00,18.0,13.1,28.61,SSE,158,0.0,0.0,81,0.00,,---,0.00,VWS V14.01,2013-01-03 10:43:00,
2013-01-03 02:48:00,18.0,13.1,28.61,ENE,68,0.0,0.0,81,0.00,,---,0.00,VWS V14.01,2013-01-03 10:48:00,
2013-01-03 02:53:00,17.8,12.9,28.61,ENE,68,0.0,0.0,81,0.00,,---,0.00,VWS V14.01,2013-01-03 10:53:00,
2013-01-03 02:58:00,17.8,12.9,28.61,ENE,68,0.0,0.0,81,0.00,,---,0.00,VWS V14.01,2013-01-03 10:58:00,
2013-01-03 03:03:00,17.8,12.9,28.61,ENE,68,0.0,0.0,81,0.00,,---,0.00,VWS V14.01,2013-01-03 11:03:00,
2013-01-03 03:08:00,17.6,12.8,28.61,ENE,68,0.0,0.0,81,0.00,,---,0.00,VWS V14.01,2013-01-03 11:08:00,
2013-01-03 03:14:00,17.6,12.8,28.61,ENE,68,0.0,0.0,81,0.00,,---,0.00,VWS V14.01,2013-01-03 11:14:00,
2013-01-03 03:19:00,17.6,12.8,28.61,SSE,158,0.0,0.0,81,0.00,,---,0.00,VWS V14.01,2013-01-03 11:19:00,
2013-01-03 03:24:00,17.6,12.8,28.61,SSE,158,0.0,0.0,81,0.00,,---,0.00,VWS V14.01,2013-01-03 11:24:00,
2013-01-03 03:29:00,17.6,12.8,28.61,ENE,68,0.0,0.0,81,0.00,,---,0.00,VWS V14.01,2013-01-03 11:29:00,
2013-01-03 03:34:00,17.6,12.5,28.61,ENE,68,0.9,0.9,80,0.00,,---,0.00,VWS V14.01,2013-01-03 11:34:00,
2013-01-03 03:39:00,17.6,12.5,28.61,ENE,68,0.0,0.0,80,0.00,,---,0.00,VWS V14.01,2013-01-03 11:39:00,
2013-01-03 03:44:00,17.4,12.0,28.61,NE,45,0.0,0.0,79,0.00,,---,0.00,VWS V14.01,2013-01-03 11:44:00,
2013-01-03 03:49:00,17.4,11.8,28.61,NE,45,1.3,2.2,78,0.00,,---,0.00,VWS V14.01,2013-01-03 11:49:00,
2013-01-03 03:54:00,17.4,11.5,28.61,ENE,68,0.0,0.0,77,0.00,,---,0.00,VWS V14.01,2013-01-03 11:54:00,
2013-01-03 03:59:00,17.4,11.5,28.58,ENE,68,0.0,0.0,77,0.00,,---,0.00,VWS V14.01,2013-01-03 11:59:00,
2013-01-03 04:04:00,17.2,11.6,28.58,ENE,68,0.0,0.0,78,0.00,,---,0.00,VWS V14.01,2013-01-03 12:04:00,
2013-01-03 04:09:00,17.2,11.6,28.58,ESE,112,0.0,0.0,78,0.00,,---,0.00,VWS V14.01,2013-01-03 12:09:00,
2013-01-03 04:14:00,17.1,11.4,28.58,East,90,0.0,0.0,78,0.00,,---,0.00,VWS V14.01,2013-01-03 12:14:00,
2013-01-03 04:19:00,17.1,10.8,28.58,NE,45,0.0,0.0,76,0.00,,---,0.00,VWS V14.01,2013-01-03 12:19:00,
2013-01-03 04:24:00,17.1,10.8,28.58,NNW,338,0.0,0.0,76,0.00,,---,0.00,VWS V14.01,2013-01-03 12:24:00,
2013-01-03 04:29:00,17.1,10.8,28.61,East,90,0.0,0.0,76,0.00,,---,0.00,VWS V14.01,2013-01-03 12:29:00,
2013-01-03 04:34:00,17.1,11.1,28.61,East,90,0.0,0.0,77,0.00,,---,0.00,VWS V14.01,2013-01-03 12:34:00,
2013-01-03 04:39:00,16.9,10.9,28.61,SSW,202,0.0,0.0,77,0.00,,---,0.00,VWS V14.01,2013-01-03 12:39:00,
2013-01-03 04:44:00,16.9,11.2,28.58,SSW,202,0.0,0.0,78,0.00,,---,0.00,VWS V14.01,2013-01-03 12:44:00,
2013-01-03 04:49:00,16.9,11.2,28.58,SE,135,0.0,0.0,78,0.00,,---,0.00,VWS V14.01,2013-01-03 12:49:00,
2013-01-03 04:54:00,16.9,11.2,28.58,SE,135,0.0,0.0,78,0.00,,---,0.00,VWS V14.01,2013-01-03 12:54:00,
2013-01-03 04:59:00,16.7,11.1,28.58,SSE,158,0.0,0.0,78,0.00,,---,0.00,VWS V14.01,2013-01-03 12:59:00,
2013-01-03 05:04:00,16.7,11.1,28.58,SSE,158,0.0,0.0,78,0.00,,---,0.00,VWS V14.01,2013-01-03 13:04:00,
2013-01-03 05:09:00,16.7,11.1,28.58,SSE,158,0.0,0.0,78,0.00,,---,0.00,VWS V14.01,2013-01-03 13:09:00,
2013-01-03 05:14:00,16.5,10.9,28.58,SSE,158,0.0,0.0,78,0.00,,---,0.00,VWS V14.01,2013-01-03 13:14:00,
2013-01-03 05:19:00,16.5,10.9,28.58,SE,135,0.0,0.0,78,0.00,,---,0.00,VWS V14.01,2013-01-03 13:19:00,
2013-01-03 05:24:00,16.5,10.9,28.58,SE,135,0.0,0.0,78,0.00,,---,0.00,VWS V14.01,2013-01-03 13:24:00,
2013-01-03 05:29:00,16.5,10.9,28.58,ESE,112,0.0,0.0,78,0.00,,---,0.00,VWS V14.01,2013-01-03 13:29:00,
2013-01-03 05:34:00,16.5,10.6,28.58,NE,45,2.0,2.0,77,0.00,,---,0.00,VWS V14.01,2013-01-03 13:34:00,
2013-01-03 05:39:00,16.5,10.3,28.58,NNE,22,0.0,0.0,76,0.00,,---,0.00,VWS V14.01,2013-01-03 13:39:00,
2013-01-03 05:44:00,16.5,10.0,28.58,East,90,2.5,3.6,75,0.00,,---,0.00,VWS V14.01,2013-01-03 13:44:00,
2013-01-03 05:49:00,16.5,9.7,28.58,NNE,22,0.0,0.9,74,0.00,,---,0.00,VWS V14.01,2013-01-03 13:49:00,
2013-01-03 05:54:00,16.5,9.7,28.58,ENE,68,1.3,2.0,74,0.00,,---,0.00,VWS V14.01,2013-01-03 13:54:00,
2013-01-03 05:59:00,16.5,10.0,28.58,NE,45,1.1,1.6,75,0.00,,---,0.00,VWS V14.01,2013-01-03 13:59:00,
2013-01-03 06:04:00,16.3,9.5,28.58,NNE,22,0.0,4.7,74,0.00,,---,0.00,VWS V14.01,2013-01-03 14:04:00,
2013-01-03 06:09:00,16.3,9.2,28.58,NE,45,2.0,2.9,73,0.00,,---,0.00,VWS V14.01,2013-01-03 14:09:00,
2013-01-03 06:14:00,16.3,9.5,28.58,North,0,0.0,0.0,74,0.00,,---,0.00,VWS V14.01,2013-01-03 14:14:00,
2013-01-03 06:19:00,16.3,9.8,28.58,East,90,0.0,0.0,75,0.00,,---,0.00,VWS V14.01,2013-01-03 14:19:00,
2013-01-03 06:24:00,16.3,9.5,28.58,NNW,338,2.0,2.0,74,0.00,,---,0.00,VWS V14.01,2013-01-03 14:24:00,
2013-01-03 06:30:00,16.2,9.4,28.58,NE,45,2.7,2.9,74,0.00,,---,0.00,VWS V14.01,2013-01-03 14:30:00,
2013-01-03 06:34:00,16.2,9.0,28.58,NNE,22,1.1,2.2,73,0.00,,---,0.00,VWS V14.01,2013-01-03 14:34:00,
2013-01-03 06:40:00,16.2,9.0,28.58,ENE,68,1.6,2.7,73,0.00,,---,0.00,VWS V14.01,2013-01-03 14:40:00,
2013-01-03 06:45:00,16.2,9.0,28.55,NNE,22,0.0,4.7,73,0.00,,---,0.00,VWS V14.01,2013-01-03 14:45:00,
2013-01-03 06:50:00,16.2,9.4,28.55,ENE,68,3.1,3.1,74,0.00,,---,0.00,VWS V14.01,2013-01-03 14:50:00,
2013-01-03 06:55:00,16.2,9.4,28.55,SSE,158,0.0,0.0,74,0.00,,---,0.00,VWS V14.01,2013-01-03 14:55:00,
2013-01-03 07:00:00,16.0,9.2,28.55,NE,45,0.0,0.0,74,0.00,,---,0.00,VWS V14.01,2013-01-03 15:00:00,
2013-01-03 07:05:00,16.0,9.2,28.55,North,0,0.0,1.1,74,0.00,,---,0.00,VWS V14.01,2013-01-03 15:05:00,
2013-01-03 07:10:00,16.0,9.5,28.55,North,0,0.0,0.0,75,0.00,,---,0.00,VWS V14.01,2013-01-03 15:10:00,
2013-01-03 07:15:00,16.0,9.5,28.55,ENE,68,0.0,0.0,75,0.00,,---,0.00,VWS V14.01,2013-01-03 15:15:00,
2013-01-03 07:20:00,16.0,9.8,28.55,SE,135,0.0,0.0,76,0.00,,---,0.00,VWS V14.01,2013-01-03 15:20:00,
2013-01-03 07:25:00,16.0,9.8,28.55,NE,45,0.0,0.0,76,0.00,,---,0.00,VWS V14.01,2013-01-03 15:25:00,
2013-01-03 07:30:00,16.0,9.8,28.58,ENE,68,0.0,0.0,76,0.00,,---,0.00,VWS V14.01,2013-01-03 15:30:00,
2013-01-03 07:35:00,15.8,9.3,28.58,ENE,68,0.0,0.0,75,0.00,,---,0.00,VWS V14.01,2013-01-03 15:35:00,
2013-01-03 07:40:00,15.8,9.6,28.58,North,0,0.0,2.2,76,0.00,,---,0.00,VWS V14.01,2013-01-03 15:40:00,
2013-01-03 07:45:00,15.8,9.3,28.58,NE,45,0.0,0.0,75,0.00,,---,0.00,VWS V14.01,2013-01-03 15:45:00,
2013-01-03 07:50:00,15.8,9.6,28.58,ESE,112,0.0,0.0,76,0.00,,---,0.00,VWS V14.01,2013-01-03 15:50:00,
2013-01-03 07:55:00,15.8,9.6,28.58,SSE,158,0.0,0.0,76,0.00,,---,0.00,VWS V14.01,2013-01-03 15:55:00,
2013-01-03 08:00:00,15.6,9.4,28.58,SSE,158,0.0,0.0,76,0.00,,---,0.00,VWS V14.01,2013-01-03 16:00:00,
2013-01-03 08:05:00,15.8,9.9,28.58,SSE,158,0.0,0.0,77,0.00,,---,0.00,VWS V14.01,2013-01-03 16:05:00,
2013-01-03 08:10:00,15.8,9.9,28.58,SSE,158,0.0,0.0,77,0.00,,---,0.00,VWS V14.01,2013-01-03 16:10:00,
2013-01-03 08:15:00,15.8,9.9,28.58,East,90,0.0,0.0,77,0.00,,---,0.00,VWS V14.01,2013-01-03 16:15:00,
2013-01-03 08:20:00,15.8,9.6,28.58,ENE,68,0.0,0.0,76,0.00,,---,0.00,VWS V14.01,2013-01-03 16:20:00,
2013-01-03 08:25:00,16.0,9.8,28.58,ENE,68,2.5,2.5,76,0.00,,---,0.00,VWS V14.01,2013-01-03 16:25:00,
2013-01-03 08:30:00,16.0,8.9,28.58,NNE,22,0.0,1.3,73,0.00,,---,0.00,VWS V14.01,2013-01-03 16:30:00,
2013-01-03 08:35:00,16.0,9.2,28.58,NE,45,0.0,1.1,74,0.00,,---,0.00,VWS V14.01,2013-01-03 16:35:00,
2013-01-03 08:40:00,16.2,9.6,28.58,NW,315,2.9,2.9,75,0.00,,---,0.00,VWS V14.01,2013-01-03 16:40:00,
2013-01-03 08:45:00,16.3,9.5,28.58,ENE,68,0.0,0.0,74,0.00,,---,0.00,VWS V14.01,2013-01-03 16:45:00,
2013-01-03 08:50:00,16.3,9.2,28.58,NE,45,0.9,0.9,73,0.00,,---,0.00,VWS V14.01,2013-01-03 16:50:00,
2013-01-03 08:55:00,16.5,8.8,28.58,NNE,22,4.9,4.9,71,0.00,,---,0.00,VWS V14.01,2013-01-03 16:55:00,
2013-01-03 09:00:00,16.7,8.9,28.58,ESE,112,0.9,2.2,71,0.00,,---,0.00,VWS V14.01,2013-01-03 17:00:00,
2013-01-03 09:05:00,16.9,9.4,28.58,WSW,248,0.0,2.9,72,0.00,,---,0.00,VWS V14.01,2013-01-03 17:05:00,
2013-01-03 09:10:00,17.1,9.6,28.58,NNE,22,2.5,2.7,72,0.00,,---,0.00,VWS V14.01,2013-01-03 17:10:00,
2013-01-03 09:15:00,17.4,9.6,28.58,NE,45,0.0,1.6,71,0.00,,---,0.00,VWS V14.01,2013-01-03 17:15:00,
2013-01-03 09:20:00,17.4,9.3,28.58,NE,45,3.6,4.5,70,0.00,,---,0.00,VWS V14.01,2013-01-03 17:20:00,
2013-01-03 09:26:00,17.6,8.9,28.58,NE,45,1.6,2.5,68,0.00,,---,0.00,VWS V14.01,2013-01-03 17:26:00,
2013-01-03 09:31:00,17.8,9.0,28.58,ENE,68,1.3,4.9,68,0.00,,---,0.00,VWS V14.01,2013-01-03 17:31:00,
2013-01-03 09:36:00,18.1,9.0,28.58,NNE,22,1.3,2.2,67,0.00,,---,0.00,VWS V14.01,2013-01-03 17:36:00,
2013-01-03 09:41:00,18.1,9.0,28.58,NNE,22,2.0,3.8,67,0.00,,---,0.00,VWS V14.01,2013-01-03 17:41:00,
2013-01-03 09:46:00,18.5,9.4,28.58,ENE,68,3.6,3.6,67,0.00,,---,0.00,VWS V14.01,2013-01-03 17:46:00,
2013-01-03 09:51:00,18.5,9.1,28.58,NNE,22,2.7,3.8,66,0.00,,---,0.00,VWS V14.01,2013-01-03 17:51:00,
2013-01-03 09:56:00,18.9,9.1,28.58,NNE,22,1.1,2.9,65,0.00,,---,0.00,VWS V14.01,2013-01-03 17:56:00,
2013-01-03 10:01:00,19.4,9.9,28.58,East,90,2.0,2.0,66,0.00,,---,0.00,VWS V14.01,2013-01-03 18:01:00,
2013-01-03 10:06:00,19.6,9.4,28.58,ENE,68,1.6,4.3,64,0.00,,---,0.00,VWS V14.01,2013-01-03 18:06:00,
2013-01-03 10:11:00,19.8,9.6,28.58,ENE,68,0.0,5.4,64,0.00,,---,0.00,VWS V14.01,2013-01-03 18:11:00,
2013-01-03 10:16:00,20.3,10.8,28.58,ENE,68,2.7,2.7,66,0.00,,---,0.00,VWS V14.01,2013-01-03 18:16:00,
2013-01-03 10:21:00,20.5,10.9,28.58,NNE,22,0.0,0.0,66,0.00,,---,0.00,VWS V14.01,2013-01-03 18:21:00,
2013-01-03 10:26:00,20.5,10.6,28.58,NNE,22,4.0,4.0,65,0.00,,---,0.00,VWS V14.01,2013-01-03 18:26:00,
2013-01-03 10:31:00,20.7,10.1,28.58,ENE,68,0.9,2.0,63,0.00,,---,0.00,VWS V14.01,2013-01-03 18:31:00,
2013-01-03 10:36:00,21.0,10.8,28.58,ENE,68,1.3,1.6,64,0.00,,---,0.00,VWS V14.01,2013-01-03 18:36:00,
2013-01-03 10:41:00,21.2,10.2,28.58,NE,45,2.7,2.7,62,0.00,,---,0.00,VWS V14.01,2013-01-03 18:41:00,
2013-01-03 10:46:00,21.6,11.3,28.58,NE,45,0.0,0.0,64,0.00,,---,0.00,VWS V14.01,2013-01-03 18:46:00,
2013-01-03 10:51:00,21.6,10.2,28.58,NE,45,2.7,4.3,61,0.00,,---,0.00,VWS V14.01,2013-01-03 18:51:00,
2013-01-03 10:56:00,21.9,10.6,28.58,ESE,112,0.9,2.5,61,0.00,,---,0.00,VWS V14.01,2013-01-03 18:56:00,
2013-01-03 11:01:00,21.9,10.6,28.58,ENE,68,1.6,3.1,61,0.00,,---,0.00,VWS V14.01,2013-01-03 19:01:00,
2013-01-03 11:06:00,22.6,11.6,28.58,ENE,68,0.0,0.0,62,0.00,,---,0.00,VWS V14.01,2013-01-03 19:06:00,
2013-01-03 11:11:00,22.6,11.2,28.58,NNE,22,4.3,4.3,61,0.00,,---,0.00,VWS V14.01,2013-01-03 19:11:00,
2013-01-03 11:16:00,22.5,10.3,28.55,NE,45,2.7,3.8,59,0.00,,---,0.00,VWS V14.01,2013-01-03 19:16:00,
2013-01-03 11:56:00,26.8,15.9,28.52,WSW,248,0.0,0.0,63,0.00,,---,0.00,VWS V14.01,2013-01-03 19:56:00,
2013-01-03 12:01:00,26.4,15.2,28.52,WSW,248,0.0,0.0,62,0.00,,---,0.00,VWS V14.01,2013-01-03 20:01:00,
2013-01-03 12:06:00,27.0,15.3,28.52,SW,225,0.0,0.0,61,0.00,,---,0.00,VWS V14.01,2013-01-03 20:06:00,
2013-01-03 12:11:00,26.8,14.8,28.52,SSW,202,0.0,0.0,60,0.00,,---,0.00,VWS V14.01,2013-01-03 20:11:00,
2013-01-03 12:16:00,27.0,15.3,28.52,SSW,202,0.0,0.0,61,0.00,,---,0.00,VWS V14.01,2013-01-03 20:16:00,
2013-01-03 12:21:00,27.1,15.1,28.52,SSW,202,0.0,0.0,60,0.00,,---,0.00,VWS V14.01,2013-01-03 20:21:00,
2013-01-03 12:26:00,27.3,15.7,28.52,SSW,202,0.0,0.0,61,0.00,,---,0.00,VWS V14.01,2013-01-03 20:26:00,
2013-01-03 12:32:00,27.5,15.8,28.50,ESE,112,0.0,0.0,61,0.00,,---,0.00,VWS V14.01,2013-01-03 20:32:00,
2013-01-03 12:37:00,27.5,15.4,28.50,ESE,112,0.0,0.0,60,0.00,,---,0.00,VWS V14.01,2013-01-03 20:37:00,
2013-01-03 12:42:00,27.7,15.2,28.50,SSE,158,0.0,0.0,59,0.00,,---,0.00,VWS V14.01,2013-01-03 20:42:00,
2013-01-03 12:47:00,27.7,15.2,28.50,East,90,1.3,1.6,59,0.00,,---,0.00,VWS V14.01,2013-01-03 20:47:00,
2013-01-03 12:52:00,28.2,15.8,28.50,SW,225,0.0,0.0,59,0.00,,---,0.00,VWS V14.01,2013-01-03 20:52:00,
2013-01-03 12:57:00,28.2,15.4,28.50,SSE,158,0.9,1.1,58,0.00,,---,0.00,VWS V14.01,2013-01-03 20:57:00,
2013-01-03 13:02:00,27.9,15.0,28.50,SSE,158,0.0,0.0,58,0.00,,---,0.00,VWS V14.01,2013-01-03 21:02:00,
2013-01-03 13:07:00,28.2,15.8,28.50,SSE,158,0.0,0.0,59,0.00,,---,0.00,VWS V14.01,2013-01-03 21:07:00,
2013-01-03 13:12:00,28.6,16.1,28.50,SSE,158,0.0,0.0,59,0.00,,---,0.00,VWS V14.01,2013-01-03 21:12:00,
2013-01-03 13:17:00,28.6,15.7,28.50,West,270,0.0,0.0,58,0.00,,---,0.00,VWS V14.01,2013-01-03 21:17:00,
2013-01-03 13:22:00,29.5,16.9,28.50,West,270,0.0,0.0,59,0.00,,---,0.00,VWS V14.01,2013-01-03 21:22:00,
2013-01-03 13:27:00,29.7,16.7,28.50,West,270,0.0,0.0,58,0.00,,---,0.00,VWS V14.01,2013-01-03 21:27:00,
2013-01-03 13:32:00,29.5,16.1,28.50,West,270,0.0,0.0,57,0.00,,---,0.00,VWS V14.01,2013-01-03 21:32:00,
2013-01-03 13:37:00,28.9,16.4,28.50,West,270,0.0,0.0,59,0.00,,---,0.00,VWS V14.01,2013-01-03 21:37:00,
2013-01-03 13:42:00,28.9,16.0,28.50,WSW,248,0.0,0.0,58,0.00,,---,0.00,VWS V14.01,2013-01-03 21:42:00,
2013-01-03 13:47:00,29.5,16.9,28.47,NNW,338,0.0,0.0,59,0.00,,---,0.00,VWS V14.01,2013-01-03 21:47:00,
2013-01-03 13:52:00,28.8,15.9,28.47,NNW,338,0.0,0.0,58,0.00,,---,0.00,VWS V14.01,2013-01-03 21:52:00,
2013-01-03 13:57:00,29.1,16.6,28.47,SSW,202,0.0,0.0,59,0.00,,---,0.00,VWS V14.01,2013-01-03 21:57:00,
2013-01-03 14:02:00,28.4,15.9,28.47,SSW,202,0.0,0.0,59,0.00,,---,0.00,VWS V14.01,2013-01-03 22:02:00,
2013-01-03 14:07:00,28.2,16.1,28.47,SSW,202,0.0,0.0,60,0.00,,---,0.00,VWS V14.01,2013-01-03 22:07:00,
2013-01-03 14:12:00,28.0,16.3,28.47,ESE,112,0.0,0.0,61,0.00,,---,0.00,VWS V14.01,2013-01-03 22:12:00,
2013-01-03 14:17:00,27.9,16.2,28.47,SSE,158,0.0,0.0,61,0.00,,---,0.00,VWS V14.01,2013-01-03 22:17:00,
2013-01-03 14:22:00,27.9,15.8,28.47,WSW,248,0.0,0.0,60,0.00,,---,0.00,VWS V14.01,2013-01-03 22:22:00,
2013-01-03 14:27:00,27.3,15.3,28.47,East,90,0.0,0.0,60,0.00,,---,0.00,VWS V14.01,2013-01-03 22:27:00,
2013-01-03 14:32:00,27.0,15.3,28.47,East,90,0.0,0.0,61,0.00,,---,0.00,VWS V14.01,2013-01-03 22:32:00,
2013-01-03 14:37:00,26.8,15.5,28.47,East,90,0.0,0.0,62,0.00,,---,0.00,VWS V14.01,2013-01-03 22:37:00,
2013-01-03 14:42:00,27.0,16.4,28.47,East,90,0.0,0.0,64,0.00,,---,0.00,VWS V14.01,2013-01-03 22:42:00,
2013-01-03 14:47:00,27.0,16.1,28.47,East,90,0.0,0.0,63,0.00,,---,0.00,VWS V14.01,2013-01-03 22:47:00,
2013-01-03 14:52:00,26.2,15.7,28.47,East,90,0.0,0.0,64,0.00,,---,0.00,VWS V14.01,2013-01-03 22:52:00,
2013-01-03 14:57:00,26.2,16.1,28.47,WSW,248,0.0,0.0,65,0.00,,---,0.00,VWS V14.01,2013-01-03 22:57:00,
2013-01-03 15:02:00,25.9,15.4,28.47,SSE,158,0.0,0.0,64,0.00,,---,0.00,VWS V14.01,2013-01-03 23:02:00,
2013-01-03 15:07:00,25.3,14.9,28.47,SSE,158,0.0,0.0,64,0.00,,---,0.00,VWS V14.01,2013-01-03 23:07:00,
2013-01-03 15:12:00,25.2,15.4,28.47,SSE,158,0.0,0.0,66,0.00,,---,0.00,VWS V14.01,2013-01-03 23:12:00,
2013-01-03 15:17:00,24.8,15.4,28.47,SSE,158,0.0,0.0,67,0.00,,---,0.00,VWS V14.01,2013-01-03 23:17:00,
2013-01-03 15:22:00,24.6,15.2,28.47,SSE,158,0.0,0.0,67,0.00,,---,0.00,VWS V14.01,2013-01-03 23:22:00,
2013-01-03 15:27:00,24.3,14.9,28.47,SSE,158,0.0,0.0,67,0.00,,---,0.00,VWS V14.01,2013-01-03 23:27:00,
2013-01-03 15:32:00,23.9,14.9,28.47,SSE,158,0.0,0.0,68,0.00,,---,0.00,VWS V14.01,2013-01-03 23:32:00,
2013-01-03 15:37:00,23.7,14.7,28.47,SSE,158,0.0,0.0,68,0.00,,---,0.00,VWS V14.01,2013-01-03 23:37:00,
2013-01-03 15:42:00,23.5,14.9,28.47,South,180,0.0,0.0,69,0.00,,---,0.00,VWS V14.01,2013-01-03 23:42:00,
2013-01-03 15:47:00,23.4,15.4,28.47,SSW,202,0.0,0.0,71,0.00,,---,0.00,VWS V14.01,2013-01-03 23:47:00,
2013-01-03 15:52:00,23.2,15.2,28.47,WSW,248,0.0,0.0,71,0.00,,---,0.00,VWS V14.01,2013-01-03 23:52:00,
2013-01-03 15:57:00,23.0,15.0,28.47,WSW,248,0.0,0.0,71,0.00,,---,0.00,VWS V14.01,2013-01-03 23:57:00,
2013-01-03 16:02:00,22.8,15.2,28.50,WSW,248,0.0,0.0,72,0.00,,---,0.00,VWS V14.01,2013-01-04 00:02:00,
2013-01-03 16:07:00,22.8,15.5,28.50,SW,225,0.0,0.0,73,0.00,,---,0.00,VWS V14.01,2013-01-04 00:07:00,
2013-01-03 16:12:00,22.6,15.6,28.50,WSW,248,0.0,0.0,74,0.00,,---,0.00,VWS V14.01,2013-01-04 00:12:00,
2013-01-03 16:17:00,22.5,15.8,28.50,WSW,248,0.0,0.0,75,0.00,,---,0.00,VWS V14.01,2013-01-04 00:17:00,
2013-01-03 16:22:00,22.5,15.8,28.50,WSW,248,0.0,0.0,75,0.00,,---,0.00,VWS V14.01,2013-01-04 00:22:00,
2013-01-03 16:27:00,22.3,15.6,28.50,WSW,248,0.0,0.0,75,0.00,,---,0.00,VWS V14.01,2013-01-04 00:27:00,
2013-01-03 16:32:00,22.1,15.7,28.50,WSW,248,0.0,0.0,76,0.00,,---,0.00,VWS V14.01,2013-01-04 00:32:00,
2013-01-03 16:37:00,22.1,16.0,28.50,WSW,248,0.0,0.0,77,0.00,,---,0.00,VWS V14.01,2013-01-04 00:37:00,
2013-01-03 16:42:00,21.9,15.8,28.50,WSW,248,0.0,0.0,77,0.00,,---,0.00,VWS V14.01,2013-01-04 00:42:00,
2013-01-03 16:48:00,21.9,15.8,28.50,WSW,248,0.0,0.0,77,0.00,,---,0.00,VWS V14.01,2013-01-04 00:48:00,
2013-01-03 16:53:00,21.9,16.1,28.50,WSW,248,0.0,0.0,78,0.00,,---,0.00,VWS V14.01,2013-01-04 00:53:00,
2013-01-03 16:58:00,21.9,16.1,28.50,West,270,0.0,0.0,78,0.00,,---,0.00,VWS V14.01,2013-01-04 00:58:00,
2013-01-03 17:03:00,21.7,15.9,28.47,West,270,0.0,0.0,78,0.00,,---,0.00,VWS V14.01,2013-01-04 01:03:00,
2013-01-03 17:08:00,21.7,15.9,28.47,West,270,0.0,0.0,78,0.00,,---,0.00,VWS V14.01,2013-01-04 01:08:00,
2013-01-03 17:13:00,21.7,15.9,28.47,West,270,0.0,0.0,78,0.00,,---,0.00,VWS V14.01,2013-01-04 01:13:00,
2013-01-03 17:18:00,21.7,15.9,28.50,West,270,0.0,0.0,78,0.00,,---,0.00,VWS V14.01,2013-01-04 01:18:00,
2013-01-03 17:23:00,21.7,16.2,28.50,West,270,0.0,0.0,79,0.00,,---,0.00,VWS V14.01,2013-01-04 01:23:00,
2013-01-03 17:28:00,21.7,16.2,28.50,West,270,0.0,0.0,79,0.00,,---,0.00,VWS V14.01,2013-01-04 01:28:00,
2013-01-03 17:33:00,21.6,16.1,28.47,West,270,0.0,0.0,79,0.00,,---,0.00,VWS V14.01,2013-01-04 01:33:00,
2013-01-03 17:38:00,21.6,16.4,28.47,West,270,0.0,0.0,80,0.00,,---,0.00,VWS V14.01,2013-01-04 01:38:00,
2013-01-03 17:43:00,21.6,16.4,28.47,West,270,0.0,0.0,80,0.00,,---,0.00,VWS V14.01,2013-01-04 01:43:00,
2013-01-03 17:48:00,21.6,16.4,28.47,West,270,0.0,0.0,80,0.00,,---,0.00,VWS V14.01,2013-01-04 01:48:00,
2013-01-03 17:53:00,21.4,16.2,28.47,West,270,0.0,0.0,80,0.00,,---,0.00,VWS V14.01,2013-01-04 01:53:00,
2013-01-03 17:58:00,21.4,16.2,28.47,West,270,0.0,0.0,80,0.00,,---,0.00,VWS V14.01,2013-01-04 01:58:00,
2013-01-03 18:03:00,21.4,16.5,28.47,West,270,0.0,0.0,81,0.00,,---,0.00,VWS V14.01,2013-01-04 02:03:00,
2013-01-03 18:08:00,21.4,16.5,28.47,West,270,0.0,0.0,81,0.00,,---,0.00,VWS V14.01,2013-01-04 02:08:00,
2013-01-03 18:13:00,21.2,16.3,28.47,West,270,0.0,0.0,81,0.00,,---,0.00,VWS V14.01,2013-01-04 02:13:00,
2013-01-03 18:18:00,21.2,16.3,28.47,West,270,0.0,0.0,81,0.00,,---,0.00,VWS V14.01,2013-01-04 02:18:00,
2013-01-03 18:23:00,21.2,16.3,28.47,West,270,0.0,0.0,81,0.00,,---,0.00,VWS V14.01,2013-01-04 02:23:00,
2013-01-03 18:28:00,21.2,16.6,28.47,West,270,0.0,0.0,82,0.00,,---,0.00,VWS V14.01,2013-01-04 02:28:00,
2013-01-03 18:33:00,21.2,16.6,28.47,West,270,0.0,0.0,82,0.00,,---,0.00,VWS V14.01,2013-01-04 02:33:00,
2013-01-03 18:38:00,21.2,16.6,28.47,West,270,0.0,0.0,82,0.00,,---,0.00,VWS V14.01,2013-01-04 02:38:00,
2013-01-03 18:43:00,21.2,16.6,28.47,West,270,0.0,0.0,82,0.00,,---,0.00,VWS V14.01,2013-01-04 02:43:00,
2013-01-03 18:48:00,21.2,16.6,28.47,West,270,0.0,0.0,82,0.00,,---,0.00,VWS V14.01,2013-01-04 02:48:00,
2013-01-03 18:53:00,21.2,16.6,28.47,West,270,0.0,0.0,82,0.00,,---,0.00,VWS V14.01,2013-01-04 02:53:00,
2013-01-03 18:58:00,21.0,16.4,28.47,West,270,0.0,0.0,82,0.00,,---,0.00,VWS V14.01,2013-01-04 02:58:00,
2013-01-03 19:03:00,21.0,16.4,28.47,West,270,0.0,0.0,82,0.00,,---,0.00,VWS V14.01,2013-01-04 03:03:00,
2013-01-03 19:08:00,20.8,16.2,28.47,West,270,0.0,0.0,82,0.00,,---,0.00,VWS V14.01,2013-01-04 03:08:00,
2013-01-03 19:13:00,20.8,16.2,28.47,West,270,0.0,0.0,82,0.00,,---,0.00,VWS V14.01,2013-01-04 03:13:00,
2013-01-03 19:18:00,20.8,16.5,28.47,West,270,0.0,0.0,83,0.00,,---,0.00,VWS V14.01,2013-01-04 03:18:00,
2013-01-03 19:23:00,20.8,16.5,28.47,West,270,0.0,0.0,83,0.00,,---,0.00,VWS V14.01,2013-01-04 03:23:00,
2013-01-03 19:28:00,20.8,16.5,28.47,West,270,0.0,0.0,83,0.00,,---,0.00,VWS V14.01,2013-01-04 03:28:00,
2013-01-03 19:33:00,20.8,16.5,28.47,West,270,0.0,0.0,83,0.00,,---,0.00,VWS V14.01,2013-01-04 03:33:00,
2013-01-03 19:38:00,21.0,17.0,28.47,SSW,202,0.0,0.0,84,0.00,,---,0.00,VWS V14.01,2013-01-04 03:38:00,
2013-01-03 19:43:00,21.0,16.7,28.47,SSW,202,0.0,0.0,83,0.00,,---,0.00,VWS V14.01,2013-01-04 03:43:00,
2013-01-03 19:48:00,21.0,16.7,28.47,SW,225,0.0,0.0,83,0.00,,---,0.00,VWS V14.01,2013-01-04 03:48:00,
2013-01-03 19:53:00,21.0,17.2,28.47,SW,225,0.0,0.0,85,0.00,,---,0.00,VWS V14.01,2013-01-04 03:53:00,
2013-01-03 19:58:00,21.0,17.0,28.47,SSW,202,0.0,0.0,84,0.00,,---,0.00,VWS V14.01,2013-01-04 03:58:00,
2013-01-03 20:03:00,21.0,17.0,28.47,SSW,202,0.0,0.0,84,0.00,,---,0.00,VWS V14.01,2013-01-04 04:03:00,
2013-01-03 20:08:00,21.0,17.0,28.47,SSW,202,0.0,0.0,84,0.00,,---,0.00,VWS V14.01,2013-01-04 04:08:00,
2013-01-03 20:13:00,21.0,17.0,28.47,SSW,202,0.0,0.0,84,0.00,,---,0.00,VWS V14.01,2013-01-04 04:13:00,
2013-01-03 20:18:00,21.0,17.0,28.47,SSW,202,0.0,0.0,84,0.00,,---,0.00,VWS V14.01,2013-01-04 04:18:00,
2013-01-03 20:23:00,21.0,17.0,28.47,SSW,202,0.0,0.0,84,0.00,,---,0.00,VWS V14.01,2013-01-04 04:23:00,
2013-01-03 20:29:00,21.0,17.0,28.47,SSW,202,0.0,0.0,84,0.00,,---,0.00,VWS V14.01,2013-01-04 04:29:00,
2013-01-03 20:34:00,21.0,17.0,28.47,SSW,202,0.0,0.0,84,0.00,,---,0.00,VWS V14.01,2013-01-04 04:34:00,
2013-01-03 20:39:00,20.8,16.8,28.47,SSW,202,0.0,0.0,84,0.00,,---,0.00,VWS V14.01,2013-01-04 04:39:00,
2013-01-03 20:44:00,20.8,16.8,28.47,SSW,202,0.0,0.0,84,0.00,,---,0.00,VWS V14.01,2013-01-04 04:44:00,
2013-01-03 20:49:00,20.8,16.8,28.47,SSW,202,0.0,0.0,84,0.00,,---,0.00,VWS V14.01,2013-01-04 04:49:00,
2013-01-03 20:54:00,20.8,16.8,28.47,SSW,202,0.0,0.0,84,0.00,,---,0.00,VWS V14.01,2013-01-04 04:54:00,
2013-01-03 20:59:00,21.0,17.0,28.47,SSW,202,0.0,0.0,84,0.00,,---,0.00,VWS V14.01,2013-01-04 04:59:00,
2013-01-03 21:00:00,21.0,17.0,28.47,SSW,202,0.0,0.0,84,0.00,,---,0.00,VWS V14.01,2013-01-04 05:00:00,
2013-01-03 21:01:00,20.8,16.8,28.47,SSW,202,0.0,0.0,84,0.00,,---,0.00,VWS V14.01,2013-01-04 05:01:00,
2013-01-03 21:03:00,21.0,17.0,28.47,SSW,202,0.0,0.0,84,0.00,,---,0.00,VWS V14.01,2013-01-04 05:03:00,
2013-01-03 21:08:00,21.0,17.0,28.47,SSW,202,0.0,0.0,84,0.00,,---,0.00,VWS V14.01,2013-01-04 05:08:00,
2013-01-03 21:13:00,21.0,17.0,28.47,SSW,202,0.0,0.0,84,0.00,,---,0.00,VWS V14.01,2013-01-04 05:13:00,
2013-01-03 21:18:00,21.0,17.0,28.47,SSW,202,0.0,0.0,84,0.00,,---,0.00,VWS V14.01,2013-01-04 05:18:00,
2013-01-03 21:23:00,21.0,17.0,28.47,SSW,202,0.0,0.0,84,0.00,,---,0.00,VWS V14.01,2013-01-04 05:23:00,
2013-01-03 21:28:00,20.8,16.8,28.47,SSW,202,0.0,0.0,84,0.00,,---,0.00,VWS V14.01,2013-01-04 05:28:00,
2013-01-03 21:33:00,20.7,16.6,28.47,SSW,202,0.0,0.0,84,0.00,,---,0.00,VWS V14.01,2013-01-04 05:33:00,
2013-01-03 21:38:00,20.5,16.4,28.47,SSW,202,0.0,0.0,84,0.00,,---,0.00,VWS V14.01,2013-01-04 05:38:00,
2013-01-03 21:43:00,20.5,16.4,28.47,SSW,202,0.0,0.0,84,0.00,,---,0.00,VWS V14.01,2013-01-04 05:43:00,
2013-01-03 21:48:00,20.3,16.2,28.47,SSW,202,0.0,0.0,84,0.00,,---,0.00,VWS V14.01,2013-01-04 05:48:00,
2013-01-03 21:53:00,20.3,16.2,28.47,SSW,202,0.0,0.0,84,0.00,,---,0.00,VWS V14.01,2013-01-04 05:53:00,